ETEB

Ansbach Army Heliport

Germany
METAR ETEB 151956Z AUTO 00000KT 9999 CLR 19/12 A3001 RMK AO2 SLP156 T01940117 $
Observed Flight Rules
Jul-15 @ 19:56 UTC (an hour ago) Visual Flight Rules
Visibility Clouds
10,000+ meters
  • Clear skies
Temperatures Readings
Current 19°C / 66°F
Dewpoint 12°C / 54°F
Humidity 64%
Altimeter 30.01" Hg
Pressure 1015.6 hPa
Elevation 467
METAR ETEB 151956Z AUTO 00000KT 9999 CLR 19/12 A3001 RMK AO2 SLP156 T01940117 $
Observed Flight Rules
Jul-15 @ 19:56 UTC
(an hour ago)
VFR
Clouds
  • Clear skies
Temperature Dewpoint
19°C / 66°F 12°C / 54°F
Humidity Altimeter Pressure
64% 30.01" Hg 1015.6 hPa